createdAt,value
2022-09-12T00:01:26.693Z,584.83
2022-09-12T00:03:55.671Z,574.23
2022-09-12T00:06:25.813Z,567.17
2022-09-12T00:08:56.286Z,580.00
2022-09-12T00:11:24.532Z,565.93
2022-09-12T00:13:52.915Z,564.73
2022-09-12T00:16:24.786Z,578.87
2022-09-12T00:18:53.842Z,571.30
2022-09-12T00:21:23.216Z,570.67
2022-09-12T00:23:51.898Z,566.63
2022-09-12T00:26:21.028Z,572.90
2022-09-12T00:28:49.170Z,573.87
2022-09-12T00:31:19.055Z,572.60
2022-09-12T00:33:48.646Z,565.10
2022-09-12T00:36:19.227Z,578.53
2022-09-12T00:38:48.394Z,571.43
2022-09-12T00:41:18.757Z,569.90
2022-09-12T00:43:49.711Z,572.13
2022-09-12T00:46:27.098Z,578.57
2022-09-12T00:49:00.071Z,571.10
2022-09-12T00:51:29.125Z,579.50
2022-09-12T00:53:59.443Z,581.33
2022-09-12T00:56:28.024Z,575.40
2022-09-12T00:58:58.966Z,582.60
2022-09-12T01:01:31.753Z,583.43
2022-09-12T01:04:02.380Z,589.00
2022-09-12T01:06:35.536Z,575.60
2022-09-12T01:09:05.011Z,586.03
2022-09-12T01:11:33.865Z,575.57
2022-09-12T01:14:02.164Z,576.27
2022-09-12T01:16:30.351Z,574.57
2022-09-12T01:19:09.189Z,572.57
2022-09-12T01:21:41.870Z,579.10
2022-09-12T01:24:52.623Z,583.33
2022-09-12T01:27:38.293Z,567.53
2022-09-12T01:30:19.956Z,570.43
2022-09-12T01:33:15.504Z,582.40
2022-09-12T01:35:47.603Z,571.83
2022-09-12T01:38:20.120Z,579.53
2022-09-12T01:40:52.617Z,580.10
2022-09-12T01:43:26.396Z,589.60
2022-09-12T01:46:01.087Z,581.83
2022-09-12T01:48:31.198Z,589.73
2022-09-12T01:51:06.127Z,595.17
2022-09-12T01:53:37.832Z,586.97
2022-09-12T01:56:10.251Z,578.13
2022-09-12T01:58:43.278Z,587.80
2022-09-12T02:01:15.659Z,582.50
2022-09-12T02:03:47.519Z,588.10
2022-09-12T02:06:20.092Z,585.07
2022-09-12T02:08:50.509Z,598.07
2022-09-12T02:11:19.722Z,597.37
2022-09-12T02:13:53.249Z,590.27
2022-09-12T02:16:25.198Z,606.77
2022-09-12T02:18:54.947Z,591.77
2022-09-12T02:21:24.091Z,591.33
2022-09-12T02:23:55.433Z,592.63
2022-09-12T02:26:29.449Z,594.33
2022-09-12T02:28:58.058Z,606.27
2022-09-12T02:31:31.062Z,611.03
2022-09-12T02:34:10.463Z,605.87
2022-09-12T02:36:47.756Z,607.57
2022-09-12T02:39:19.903Z,613.43
2022-09-12T02:41:48.363Z,621.13
2022-09-12T02:44:16.311Z,606.20
2022-09-12T02:46:51.857Z,621.83
2022-09-12T02:49:20.171Z,625.77
2022-09-12T02:51:50.176Z,625.60
2022-09-12T02:54:20.412Z,627.27
2022-09-12T02:56:48.350Z,628.83
2022-09-12T02:59:20.280Z,634.47
2022-09-12T03:02:12.870Z,628.53
2022-09-12T03:04:50.187Z,616.57
2022-09-12T03:07:25.593Z,626.63
2022-09-12T03:09:59.300Z,630.73
2022-09-12T03:12:38.699Z,629.37
2022-09-12T03:15:15.818Z,624.23
2022-09-12T03:17:57.340Z,623.43
2022-09-12T03:20:32.600Z,624.43
2022-09-12T03:23:04.164Z,633.27
2022-09-12T03:25:35.905Z,627.70
2022-09-12T03:28:08.119Z,641.73
2022-09-12T03:30:39.338Z,642.60
2022-09-12T03:33:12.058Z,640.43
2022-09-12T03:35:40.412Z,644.77
2022-09-12T03:38:08.978Z,651.37
2022-09-12T03:40:37.192Z,656.60
2022-09-12T03:43:05.721Z,668.33
2022-09-12T03:45:33.654Z,656.30
2022-09-12T03:48:01.672Z,670.50
2022-09-12T03:50:30.968Z,672.30
2022-09-12T03:52:59.991Z,678.63
2022-09-12T03:55:27.910Z,682.53
2022-09-12T03:57:56.463Z,692.73
2022-09-12T04:00:24.635Z,699.10
2022-09-12T04:02:55.833Z,699.17
2022-09-12T04:05:24.023Z,706.77
2022-09-12T04:07:53.369Z,705.97
2022-09-12T04:10:21.497Z,713.07
2022-09-12T04:12:49.451Z,709.47
2022-09-12T04:15:17.547Z,724.40
2022-09-12T04:17:45.410Z,723.10
2022-09-12T04:20:13.398Z,717.33
2022-09-12T04:22:41.337Z,726.07
2022-09-12T04:25:11.749Z,717.63
2022-09-12T04:27:39.739Z,708.83
2022-09-12T04:30:09.205Z,712.47
2022-09-12T04:32:37.856Z,725.57
2022-09-12T04:35:06.241Z,713.47
2022-09-12T04:37:34.099Z,725.10
2022-09-12T04:40:02.353Z,727.53
2022-09-12T04:42:32.239Z,717.00
2022-09-12T04:45:00.150Z,720.30
2022-09-12T04:47:28.108Z,714.97
2022-09-12T04:49:56.043Z,721.77
2022-09-12T04:52:24.119Z,718.13
2022-09-12T04:54:52.573Z,712.13
2022-09-12T04:57:20.447Z,707.53
2022-09-12T04:59:49.780Z,719.43
2022-09-12T05:02:18.076Z,716.87
2022-09-12T05:04:46.866Z,715.03
2022-09-12T05:07:14.878Z,710.67
2022-09-12T05:09:42.800Z,715.60
2022-09-12T05:12:10.679Z,713.93
2022-09-12T05:14:38.659Z,718.03
2022-09-12T05:17:08.660Z,730.27
2022-09-12T05:19:36.892Z,730.27
2022-09-12T05:22:06.588Z,723.17
2022-09-12T05:24:35.229Z,727.73
2022-09-12T05:27:04.735Z,727.67
2022-09-12T05:29:32.677Z,729.13
2022-09-12T05:32:00.586Z,726.50
2022-09-12T05:34:29.855Z,730.27
2022-09-12T05:36:58.193Z,725.13
2022-09-12T05:39:26.192Z,727.37
2022-09-12T05:41:54.232Z,731.80
2022-09-12T05:44:22.141Z,735.27
2022-09-12T05:46:51.392Z,741.57
2022-09-12T05:49:19.290Z,738.57
2022-09-12T05:51:48.476Z,734.93
2022-09-12T05:54:17.952Z,735.87
2022-09-12T05:56:46.597Z,736.73
2022-09-12T05:59:16.432Z,723.07
2022-09-12T06:01:44.610Z,734.37
2022-09-12T06:04:13.206Z,734.60
2022-09-12T06:06:44.977Z,724.13
2022-09-12T06:09:16.001Z,731.90
2022-09-12T06:11:44.428Z,722.20
2022-09-12T06:14:14.582Z,717.10
2022-09-12T06:16:42.739Z,719.83
2022-09-12T06:19:15.502Z,718.93
2022-09-12T06:21:43.670Z,723.77
2022-09-12T06:24:11.824Z,725.00
2022-09-12T06:26:41.100Z,722.33
2022-09-12T06:29:08.997Z,727.70
2022-09-12T06:31:38.843Z,725.13
2022-09-12T06:34:08.415Z,729.17
2022-09-12T06:36:38.853Z,724.33
2022-09-12T06:39:08.726Z,724.17
2022-09-12T06:41:40.402Z,721.03
2022-09-12T06:44:14.067Z,712.97
2022-09-12T06:46:42.035Z,729.80
2022-09-12T06:49:10.015Z,730.80
2022-09-12T06:51:38.009Z,725.30
2022-09-12T06:54:06.482Z,732.10
2022-09-12T06:56:34.507Z,728.63
2022-09-12T06:59:02.422Z,727.57
2022-09-12T07:01:32.896Z,725.80
2022-09-12T07:04:02.118Z,730.30
2022-09-12T07:06:32.503Z,727.13
2022-09-12T07:09:01.165Z,728.47
2022-09-12T07:11:31.762Z,731.67
2022-09-12T07:14:00.793Z,732.00
2022-09-12T07:16:28.842Z,729.77
2022-09-12T07:18:59.828Z,729.70
2022-09-12T07:21:28.328Z,732.60
2022-09-12T07:23:57.790Z,734.27
2022-09-12T07:26:28.982Z,732.00
2022-09-12T07:29:18.701Z,739.27
2022-09-12T07:31:47.066Z,731.17
2022-09-12T07:34:17.562Z,729.83
2022-09-12T07:36:45.502Z,729.63
2022-09-12T07:39:13.487Z,732.50
2022-09-12T07:41:41.833Z,730.43
2022-09-12T07:44:09.761Z,729.67
2022-09-12T07:46:38.340Z,735.83
2022-09-12T07:49:06.987Z,723.90
2022-09-12T07:51:37.769Z,729.40
2022-09-12T07:54:09.020Z,728.13
2022-09-12T07:56:39.195Z,727.40
2022-09-12T07:59:07.856Z,732.73
2022-09-12T08:01:36.433Z,733.10
2022-09-12T08:04:04.925Z,740.80
2022-09-12T08:06:33.817Z,721.73
2022-09-12T08:09:03.133Z,729.03
2022-09-12T08:11:31.040Z,721.90
2022-09-12T08:14:00.041Z,722.97
2022-09-12T08:16:29.730Z,724.97
2022-09-12T08:18:58.067Z,714.43
2022-09-12T08:21:27.284Z,715.70
2022-09-12T08:23:57.213Z,721.27
2022-09-12T08:26:26.877Z,711.77
2022-09-12T08:28:55.620Z,706.53
2022-09-12T08:31:24.929Z,703.53
2022-09-12T08:33:53.243Z,704.87
2022-09-12T08:36:23.000Z,710.03
2022-09-12T08:38:56.279Z,709.50
2022-09-12T08:41:31.269Z,707.03
2022-09-12T08:44:27.429Z,698.87
2022-09-12T08:47:14.537Z,693.47
2022-09-12T08:49:49.463Z,705.63
2022-09-12T08:52:22.913Z,710.40
2022-09-12T08:54:51.082Z,706.10
2022-09-12T08:57:20.376Z,704.60
2022-09-12T08:59:48.376Z,704.03
2022-09-12T09:02:30.420Z,706.10
2022-09-12T09:05:02.689Z,701.87
2022-09-12T09:07:55.975Z,705.93
2022-09-12T09:10:29.318Z,702.93
2022-09-12T09:13:03.506Z,707.20
2022-09-12T09:15:41.046Z,708.13
2022-09-12T09:18:16.630Z,699.07
2022-09-12T09:20:48.665Z,702.60
2022-09-12T09:23:24.137Z,715.67
2022-09-12T09:25:55.430Z,704.53
2022-09-12T09:28:27.136Z,703.87
2022-09-12T09:30:55.385Z,702.10
2022-09-12T09:33:24.516Z,698.00
2022-09-12T09:35:57.818Z,696.70
2022-09-12T09:38:31.625Z,698.70
2022-09-12T09:41:12.667Z,696.13
2022-09-12T09:43:41.929Z,692.57
2022-09-12T09:46:10.302Z,692.13
2022-09-12T09:48:39.829Z,688.73
2022-09-12T09:51:09.365Z,677.53
2022-09-12T09:53:41.714Z,689.90
2022-09-12T09:56:13.817Z,678.63
2022-09-12T09:58:43.609Z,687.93
2022-09-12T10:01:17.135Z,676.43
2022-09-12T10:03:53.194Z,672.33
2022-09-12T10:06:32.352Z,671.70
2022-09-12T10:09:20.413Z,672.40
2022-09-12T10:11:48.546Z,662.17
2022-09-12T10:14:36.830Z,664.23
2022-09-12T10:17:24.046Z,663.63
2022-09-12T10:20:10.535Z,663.27
2022-09-12T10:22:41.377Z,666.37
2022-09-12T10:25:12.717Z,653.57
2022-09-12T10:27:42.804Z,659.87
2022-09-12T10:30:19.558Z,642.70
2022-09-12T10:32:50.587Z,656.03
2022-09-12T10:35:20.452Z,653.40
2022-09-12T10:37:59.490Z,662.57
2022-09-12T10:40:28.922Z,651.17
2022-09-12T10:42:58.117Z,657.10
2022-09-12T10:45:30.057Z,657.53
2022-09-12T10:48:02.093Z,649.67
2022-09-12T10:50:34.457Z,642.87
2022-09-12T10:53:20.218Z,645.13
2022-09-12T10:56:04.633Z,658.67
2022-09-12T10:58:56.834Z,651.13
2022-09-12T11:01:36.564Z,650.00
2022-09-12T11:04:24.445Z,635.93
2022-09-12T11:07:13.393Z,649.10
2022-09-12T11:09:46.711Z,647.27
2022-09-12T11:12:19.642Z,650.43
2022-09-12T11:15:04.845Z,655.40
2022-09-12T11:17:43.335Z,648.83
2022-09-12T11:20:34.602Z,638.90
2022-09-12T11:23:39.202Z,641.37
2022-09-12T11:26:17.077Z,649.80
2022-09-12T11:28:53.706Z,644.83
2022-09-12T11:31:45.973Z,640.63
2022-09-12T11:34:18.392Z,644.70
2022-09-12T11:36:50.705Z,634.93
2022-09-12T11:39:22.520Z,639.10
2022-09-12T11:41:52.973Z,643.07
2022-09-12T11:44:24.527Z,640.00
2022-09-12T11:46:53.415Z,629.33
2022-09-12T11:49:33.520Z,634.53
2022-09-12T11:52:06.708Z,621.27
2022-09-12T11:54:39.453Z,628.57
2022-09-12T11:57:14.435Z,627.40
2022-09-12T11:59:47.124Z,630.37
2022-09-12T12:02:19.208Z,626.27
2022-09-12T12:05:00.838Z,623.67
2022-09-12T12:07:31.241Z,630.47
2022-09-12T12:09:59.255Z,623.00
2022-09-12T12:12:28.987Z,624.33
2022-09-12T12:14:57.624Z,626.47
2022-09-12T12:17:26.952Z,622.60
2022-09-12T12:20:05.540Z,631.93
2022-09-12T12:22:34.848Z,618.83
2022-09-12T12:25:07.279Z,629.07
2022-09-12T12:27:50.641Z,626.10
2022-09-12T12:31:05.625Z,628.70
2022-09-12T12:34:14.294Z,627.00
2022-09-12T12:36:44.561Z,626.03
2022-09-12T12:39:55.565Z,629.37
2022-09-12T12:43:06.169Z,630.80
2022-09-12T12:46:11.298Z,627.60
2022-09-12T12:48:54.705Z,624.63
2022-09-12T12:51:52.562Z,629.83
2022-09-12T12:54:48.729Z,624.77
2022-09-12T12:57:49.916Z,628.20
2022-09-12T13:00:30.513Z,619.67
2022-09-12T13:03:00.988Z,634.20
2022-09-12T13:05:30.834Z,630.03
2022-09-12T13:08:02.227Z,622.53
2022-09-12T13:10:33.349Z,623.23
2022-09-12T13:13:03.340Z,621.30
2022-09-12T13:15:52.477Z,628.03
2022-09-12T13:18:26.107Z,629.80
2022-09-12T13:20:56.932Z,621.23
2022-09-12T13:23:26.406Z,632.23
2022-09-12T13:25:57.644Z,628.90
2022-09-12T13:28:26.942Z,623.27
2022-09-12T13:31:01.972Z,620.53
2022-09-12T13:33:36.779Z,627.50
2022-09-12T13:36:29.530Z,625.07
2022-09-12T13:39:06.612Z,627.13
2022-09-12T13:41:47.809Z,626.07
2022-09-12T13:44:18.706Z,631.40
2022-09-12T13:55:26.925Z,624.60
2022-09-12T14:07:27.123Z,635.00
2022-09-12T14:09:56.778Z,635.57
2022-09-12T14:12:28.570Z,619.90
2022-09-12T14:14:56.648Z,621.90
2022-09-12T14:17:29.819Z,626.57
2022-09-12T14:20:02.192Z,635.70
2022-09-12T14:22:34.288Z,618.93
2022-09-12T14:25:02.849Z,613.30
2022-09-12T14:27:37.394Z,615.43
2022-09-12T14:30:20.052Z,613.13
2022-09-12T14:33:03.882Z,619.83
2022-09-12T14:35:33.575Z,621.00
2022-09-12T14:38:09.618Z,614.77
2022-09-12T14:57:38.899Z,618.50
2022-09-12T15:00:17.848Z,620.53
2022-09-12T15:02:46.016Z,624.63
2022-09-12T15:05:20.142Z,613.90
2022-09-12T15:07:54.910Z,627.00
2022-09-12T15:10:25.695Z,620.23
2022-09-12T15:13:14.135Z,622.80
2022-09-12T15:15:43.823Z,622.90
2022-09-12T15:18:12.219Z,604.23
2022-09-12T15:20:41.782Z,606.97
2022-09-12T15:23:17.765Z,614.13
2022-09-12T15:25:46.103Z,609.73
2022-09-12T15:28:19.875Z,607.57
2022-09-12T15:30:49.579Z,614.33
2022-09-12T15:33:18.241Z,603.73
2022-09-12T15:35:47.280Z,614.50
2022-09-12T15:38:15.830Z,625.43
2022-09-12T15:40:43.901Z,601.27
2022-09-12T15:43:13.688Z,598.00
2022-09-12T15:45:45.109Z,599.80
2022-09-12T15:48:13.889Z,603.20
2022-09-12T15:50:42.368Z,599.67
2022-09-12T15:53:15.137Z,598.80
2022-09-12T15:55:43.677Z,597.47
2022-09-12T15:58:11.896Z,604.93
2022-09-12T16:00:40.440Z,603.00
2022-09-12T16:03:21.602Z,596.97
2022-09-12T16:05:50.036Z,606.07
2022-09-12T16:08:18.469Z,609.83
2022-09-12T16:10:55.829Z,593.63
2022-09-12T16:13:24.324Z,594.97
2022-09-12T16:15:52.749Z,608.67
2022-09-12T16:18:22.476Z,595.33
2022-09-12T16:20:53.658Z,603.30
2022-09-12T16:23:22.167Z,600.97
2022-09-12T16:25:58.373Z,593.83
2022-09-12T16:28:26.668Z,599.93
2022-09-12T16:30:58.484Z,603.03
2022-09-12T16:33:29.034Z,609.43
2022-09-12T16:36:03.086Z,592.43
2022-09-12T16:38:31.497Z,604.07
2022-09-12T16:41:03.253Z,609.97
2022-09-12T16:43:31.900Z,610.60
2022-09-12T16:46:03.972Z,594.77
2022-09-12T16:48:33.909Z,593.23
2022-09-12T16:51:03.107Z,603.07
2022-09-12T16:53:31.307Z,594.43
2022-09-12T16:55:59.420Z,607.03
2022-09-12T16:58:28.185Z,595.27
2022-09-12T17:01:03.428Z,606.47
2022-09-12T17:03:33.507Z,600.97
2022-09-12T17:06:03.162Z,608.10
2022-09-12T17:08:31.986Z,600.27
2022-09-12T17:11:05.275Z,607.73
2022-09-12T17:14:00.154Z,605.03
2022-09-12T17:16:22.347Z,600.13
2022-09-12T17:18:52.638Z,616.77
2022-09-12T17:21:21.568Z,612.70
2022-09-12T17:23:49.865Z,613.77
2022-09-12T17:26:17.992Z,605.33
2022-09-12T17:28:46.191Z,607.60
2022-09-12T17:31:15.594Z,613.90
2022-09-12T17:33:43.719Z,622.87
2022-09-12T17:36:15.299Z,617.77
2022-09-12T17:38:45.006Z,618.50
2022-09-12T17:41:17.639Z,617.30
2022-09-12T17:43:46.413Z,614.30
2022-09-12T17:46:14.821Z,619.93
2022-09-12T17:48:47.247Z,626.70
2022-09-12T17:51:18.853Z,623.13
2022-09-12T17:54:01.123Z,625.10
2022-09-12T17:56:30.760Z,626.30
2022-09-12T17:58:59.952Z,618.07
2022-09-12T18:01:46.935Z,629.83
2022-09-12T18:04:15.663Z,626.23
2022-09-12T18:06:48.628Z,633.87
2022-09-12T18:09:18.297Z,631.73
2022-09-12T18:11:47.002Z,637.73
2022-09-12T18:14:15.247Z,628.93
2022-09-12T18:16:43.338Z,634.40
2022-09-12T18:19:12.165Z,635.57
2022-09-12T18:21:40.937Z,636.20
2022-09-12T18:24:11.419Z,642.27
2022-09-12T18:26:39.887Z,642.43
2022-09-12T18:29:07.946Z,640.07
2022-09-12T18:31:36.197Z,632.03
2022-09-12T18:34:05.879Z,644.37
2022-09-12T18:36:34.181Z,638.33
2022-09-12T18:39:02.276Z,644.53
2022-09-12T18:41:34.341Z,657.93
2022-09-12T18:44:04.721Z,648.10
2022-09-12T18:46:34.731Z,641.63
2022-09-12T18:49:03.126Z,642.70
2022-09-12T18:51:33.554Z,643.47
2022-09-12T18:54:03.573Z,649.17
2022-09-12T18:56:34.374Z,650.27
2022-09-12T18:59:05.035Z,653.80
2022-09-12T19:01:35.243Z,640.90
2022-09-12T19:04:05.630Z,646.77
2022-09-12T19:06:36.425Z,656.60
2022-09-12T19:09:08.035Z,659.53
2022-09-12T19:11:39.913Z,649.10
2022-09-12T19:14:08.339Z,658.57
2022-09-12T19:16:36.876Z,655.03
2022-09-12T19:19:05.787Z,656.87
2022-09-12T19:21:35.359Z,657.53
2022-09-12T19:24:06.476Z,665.73
2022-09-12T19:26:34.907Z,662.37
2022-09-12T19:29:04.887Z,669.73
2022-09-12T19:31:33.613Z,665.10
2022-09-12T19:34:02.583Z,665.50
2022-09-12T19:36:44.979Z,670.27
2022-09-12T19:39:19.467Z,673.20
2022-09-12T19:41:47.940Z,667.00
2022-09-12T19:44:19.248Z,670.00
2022-09-12T19:46:47.618Z,671.77
2022-09-12T19:49:15.775Z,672.03
2022-09-12T19:51:43.906Z,680.67
2022-09-12T19:54:13.376Z,669.17
2022-09-12T19:56:42.718Z,674.97
2022-09-12T19:59:11.247Z,674.67
2022-09-12T20:01:40.908Z,674.50
2022-09-12T20:04:09.179Z,674.97
2022-09-12T20:06:37.358Z,677.47
2022-09-12T20:09:06.266Z,676.63
2022-09-12T20:11:34.526Z,684.80
2022-09-12T20:14:02.806Z,684.97
2022-09-12T20:16:31.719Z,689.30
2022-09-12T20:19:03.630Z,688.10
2022-09-12T20:21:34.094Z,686.57
2022-09-12T20:24:03.825Z,680.70
2022-09-12T20:26:32.771Z,680.87
2022-09-12T20:29:01.535Z,688.67
2022-09-12T20:31:30.392Z,685.27
2022-09-12T20:33:58.939Z,681.73
2022-09-12T20:36:28.943Z,685.00
2022-09-12T20:39:00.065Z,691.53
2022-09-12T20:41:31.046Z,691.77
2022-09-12T20:44:00.877Z,691.13
2022-09-12T20:46:29.914Z,683.50
2022-09-12T20:48:59.579Z,693.50
2022-09-12T20:51:30.362Z,686.03
2022-09-12T20:53:59.919Z,689.67
2022-09-12T20:56:29.570Z,697.53
2022-09-12T20:58:57.988Z,698.87
2022-09-12T21:01:27.495Z,706.90
2022-09-12T21:03:55.714Z,703.10
2022-09-12T21:06:23.989Z,708.83
2022-09-12T21:08:53.628Z,708.77
2022-09-12T21:11:21.862Z,715.83
2022-09-12T21:13:50.262Z,720.43
2022-09-12T21:16:19.703Z,720.90
2022-09-12T21:18:48.598Z,721.13
2022-09-12T21:21:16.929Z,723.70
2022-09-12T21:23:45.087Z,723.80
2022-09-12T21:26:14.690Z,723.30
2022-09-12T21:28:42.755Z,728.10
2022-09-12T21:31:10.982Z,732.23
2022-09-12T21:33:39.263Z,723.10
2022-09-12T21:36:08.653Z,734.20
2022-09-12T21:38:36.728Z,734.23
2022-09-12T21:41:06.634Z,729.17
2022-09-12T21:43:36.576Z,729.63
2022-09-12T21:46:05.235Z,725.37
2022-09-12T21:48:34.012Z,723.43
2022-09-12T21:51:02.241Z,728.07
2022-09-12T21:53:33.170Z,723.53
2022-09-12T21:56:07.049Z,723.10
2022-09-12T21:58:36.860Z,726.20
2022-09-12T22:01:06.128Z,722.77
2022-09-12T22:03:34.310Z,723.80
2022-09-12T22:06:03.813Z,730.63
2022-09-12T22:08:33.518Z,732.10
2022-09-12T22:11:03.392Z,727.80
2022-09-12T22:13:32.388Z,728.47
2022-09-12T22:16:03.127Z,732.07
2022-09-12T22:18:34.616Z,741.83
2022-09-12T22:21:05.225Z,733.27
2022-09-12T22:23:51.018Z,732.83
2022-09-12T22:26:19.226Z,732.10
2022-09-12T22:28:48.196Z,731.00
2022-09-12T22:31:18.990Z,732.13
2022-09-12T22:33:48.117Z,732.17
2022-09-12T22:36:16.201Z,734.03
2022-09-12T22:38:45.140Z,739.77
2022-09-12T22:41:14.299Z,736.20
2022-09-12T22:43:42.754Z,740.77
2022-09-12T22:46:13.690Z,737.03
2022-09-12T22:48:43.684Z,733.10
2022-09-12T22:51:12.401Z,732.93
2022-09-12T22:53:40.738Z,734.80
2022-09-12T22:56:10.007Z,745.73
2022-09-12T22:58:38.370Z,736.90
2022-09-12T23:01:07.156Z,736.87
2022-09-12T23:03:36.419Z,739.97
2022-09-12T23:06:07.000Z,748.50
2022-09-12T23:08:36.243Z,748.20
2022-09-12T23:11:05.745Z,748.90
2022-09-12T23:13:34.101Z,743.70
2022-09-12T23:16:03.771Z,753.77
2022-09-12T23:18:32.441Z,745.37
2022-09-12T23:21:01.321Z,737.43
2022-09-12T23:23:30.951Z,739.10
2022-09-12T23:26:04.046Z,738.73
2022-09-12T23:28:32.462Z,736.93
2022-09-12T23:31:00.797Z,748.23
2022-09-12T23:33:29.513Z,734.80
2022-09-12T23:36:02.134Z,738.67
2022-09-12T23:38:33.525Z,745.67
2022-09-12T23:41:02.057Z,740.33
2022-09-12T23:43:30.536Z,742.83
2022-09-12T23:45:59.058Z,747.40
2022-09-12T23:48:27.786Z,742.53
2022-09-12T23:50:56.323Z,737.87
2022-09-12T23:53:24.748Z,747.43
2022-09-12T23:55:54.388Z,746.20
2022-09-12T23:58:22.885Z,746.53
